TAX09JF ENBR-EGPH
Flight info
| Callsign | TAX09JF |
|---|---|
| Flight time | 1h 9m |
| Altitude | 40000 |
| Route | EPOTU DCT BEREP DCT ADN DCT NAXIL P600 PTH |
| Aircraft | B738/M-SDE2E3FGHIRWXY/LB1 |
Departure
| Time | 2026-04-21 14:23 |
|---|---|
| Airport | Bergen Airport, Flesland (ENBR) |
Arrival
| Time | 2026-04-21 15:33 |
|---|---|
| Airport | Edinburgh Airport (EGPH) |
| Time | Latitude | Longitude | Altitude | Speed | Heading |
|---|---|---|---|---|---|
| 2026-04-21 14:03 | 60.29813 | 5.21985 | 167 ft | 13 kts | 171° |
| 2026-04-21 14:03 | 60.29723 | 5.22014 | 168 ft | 13 kts | 171° |
| 2026-04-21 14:04 | 60.29636 | 5.22043 | 169 ft | 13 kts | 171° |
| 2026-04-21 14:04 | 60.29551 | 5.22071 | 173 ft | 12 kts | 171° |
| 2026-04-21 14:04 | 60.29423 | 5.22111 | 175 ft | 26 kts | 176° |
| 2026-04-21 14:04 | 60.29243 | 5.22171 | 177 ft | 25 kts | 172° |
| 2026-04-21 14:05 | 60.29091 | 5.22259 | 173 ft | 21 kts | 128° |
| 2026-04-21 14:05 | 60.29024 | 5.22447 | 173 ft | 12 kts | 126° |
| 2026-04-21 14:05 | 60.28975 | 5.22560 | 173 ft | 7 kts | 133° |
| 2026-04-21 14:05 | 60.28966 | 5.22579 | 173 ft | 0 kts | 133° |
| 2026-04-21 14:06 | 60.28965 | 5.22581 | 173 ft | 0 kts | 133° |
| 2026-04-21 14:16 | 60.28968 | 5.22575 | 173 ft | 3 kts | 133° |
| 2026-04-21 14:16 | 60.28987 | 5.22537 | 173 ft | 4 kts | 136° |
| 2026-04-21 14:16 | 60.29005 | 5.22503 | 173 ft | 4 kts | 140° |
| 2026-04-21 14:16 | 60.29026 | 5.22470 | 173 ft | 4 kts | 148° |
| 2026-04-21 14:17 | 60.29050 | 5.22446 | 173 ft | 4 kts | 171° |
| 2026-04-21 14:17 | 60.29064 | 5.22445 | 173 ft | 1 kts | 187° |
| 2026-04-21 14:17 | 60.29066 | 5.22445 | 173 ft | 0 kts | 187° |
| 2026-04-21 14:19 | 60.29054 | 5.22442 | 173 ft | 6 kts | 190° |
| 2026-04-21 14:19 | 60.28994 | 5.22400 | 173 ft | 15 kts | 200° |
| 2026-04-21 14:19 | 60.28874 | 5.22299 | 173 ft | 22 kts | 176° |
| 2026-04-21 14:20 | 60.28690 | 5.22355 | 173 ft | 31 kts | 172° |
| 2026-04-21 14:20 | 60.28480 | 5.22421 | 173 ft | 31 kts | 169° |
| 2026-04-21 14:20 | 60.28281 | 5.22490 | 181 ft | 28 kts | 172° |
| 2026-04-21 14:20 | 60.28102 | 5.22542 | 181 ft | 23 kts | 185° |
| 2026-04-21 14:21 | 60.28059 | 5.22475 | 183 ft | 0 kts | 252° |
| 2026-04-21 14:22 | 60.28058 | 5.22469 | 183 ft | 2 kts | 252° |
| 2026-04-21 14:22 | 60.28045 | 5.22359 | 183 ft | 13 kts | 259° |
| 2026-04-21 14:22 | 60.28110 | 5.22224 | 184 ft | 28 kts | 350° |
| 2026-04-21 14:23 | 60.28560 | 5.22072 | 178 ft | 101 kts | 351° |
| 2026-04-21 14:23 | 60.29455 | 5.21787 | 183 ft | 158 kts | 350° |
| 2026-04-21 14:23 | 60.30582 | 5.21465 | 905 ft | 157 kts | 352° |
| 2026-04-21 14:23 | 60.31652 | 5.21162 | 1820 ft | 160 kts | 351° |
| 2026-04-21 14:24 | 60.32854 | 5.20703 | 2192 ft | 192 kts | 342° |
| 2026-04-21 14:24 | 60.33934 | 5.18864 | 2422 ft | 223 kts | 295° |
| 2026-04-21 14:24 | 60.34010 | 5.15698 | 2885 ft | 237 kts | 254° |
| 2026-04-21 14:24 | 60.33176 | 5.12694 | 3282 ft | 257 kts | 233° |
| 2026-04-21 14:25 | 60.31993 | 5.09865 | 3904 ft | 271 kts | 229° |
| 2026-04-21 14:25 | 60.30733 | 5.07017 | 4860 ft | 270 kts | 229° |
| 2026-04-21 14:25 | 60.29470 | 5.04187 | 5792 ft | 274 kts | 230° |
| 2026-04-21 14:25 | 60.28193 | 5.01294 | 6639 ft | 279 kts | 230° |
| 2026-04-21 14:26 | 60.26902 | 4.98338 | 7501 ft | 280 kts | 230° |
| 2026-04-21 14:26 | 60.25629 | 4.95397 | 8475 ft | 277 kts | 230° |
| 2026-04-21 14:26 | 60.24363 | 4.92453 | 9332 ft | 280 kts | 231° |
| 2026-04-21 14:26 | 60.23086 | 4.89472 | 10178 ft | 282 kts | 230° |
| 2026-04-21 14:27 | 60.21803 | 4.86469 | 10914 ft | 288 kts | 230° |
| 2026-04-21 14:27 | 60.20449 | 4.83297 | 11138 ft | 311 kts | 230° |
| 2026-04-21 14:27 | 60.18991 | 4.79876 | 11360 ft | 333 kts | 230° |
| 2026-04-21 14:27 | 60.17486 | 4.76352 | 11921 ft | 341 kts | 230° |
| 2026-04-21 14:28 | 60.16017 | 4.72587 | 12675 ft | 343 kts | 234° |
| 2026-04-21 14:28 | 60.14634 | 4.68677 | 13458 ft | 346 kts | 235° |
| 2026-04-21 14:28 | 60.13279 | 4.64745 | 14240 ft | 347 kts | 236° |
| 2026-04-21 14:28 | 60.11896 | 4.60717 | 15084 ft | 346 kts | 235° |
| 2026-04-21 14:29 | 60.10532 | 4.56764 | 15659 ft | 351 kts | 235° |
| 2026-04-21 14:29 | 60.09122 | 4.52710 | 16462 ft | 350 kts | 235° |
| 2026-04-21 14:29 | 60.07723 | 4.48710 | 16899 ft | 360 kts | 234° |
| 2026-04-21 14:29 | 60.06266 | 4.44570 | 17441 ft | 366 kts | 234° |
| 2026-04-21 14:30 | 60.04786 | 4.40383 | 18085 ft | 369 kts | 234° |
| 2026-04-21 14:30 | 60.03299 | 4.36191 | 18769 ft | 371 kts | 234° |
| 2026-04-21 14:30 | 60.01796 | 4.31962 | 19293 ft | 376 kts | 233° |
| 2026-04-21 14:30 | 60.00276 | 4.27699 | 19871 ft | 378 kts | 234° |
| 2026-04-21 14:31 | 59.98751 | 4.23427 | 20523 ft | 378 kts | 233° |
| 2026-04-21 14:31 | 59.97230 | 4.19176 | 21257 ft | 374 kts | 233° |
| 2026-04-21 14:31 | 59.95708 | 4.14930 | 21764 ft | 379 kts | 233° |
| 2026-04-21 14:31 | 59.94151 | 4.10601 | 22095 ft | 387 kts | 233° |
| 2026-04-21 14:32 | 59.92555 | 4.06171 | 22641 ft | 389 kts | 233° |
| 2026-04-21 14:32 | 59.90999 | 4.01854 | 23234 ft | 390 kts | 233° |
| 2026-04-21 14:32 | 59.89414 | 3.97458 | 23789 ft | 391 kts | 233° |
| 2026-04-21 14:32 | 59.87819 | 3.93044 | 24294 ft | 393 kts | 233° |
| 2026-04-21 14:33 | 59.86216 | 3.88618 | 24736 ft | 395 kts | 233° |
| 2026-04-21 14:33 | 59.84601 | 3.84173 | 25098 ft | 398 kts | 233° |
| 2026-04-21 14:33 | 59.82967 | 3.79684 | 25418 ft | 403 kts | 232° |
| 2026-04-21 14:33 | 59.81310 | 3.75142 | 25698 ft | 408 kts | 232° |
| 2026-04-21 14:34 | 59.79647 | 3.70591 | 26155 ft | 408 kts | 233° |
| 2026-04-21 14:34 | 59.77967 | 3.66000 | 26412 ft | 414 kts | 233° |
| 2026-04-21 14:34 | 59.76277 | 3.61392 | 26914 ft | 412 kts | 232° |
| 2026-04-21 14:34 | 59.74585 | 3.56788 | 27303 ft | 415 kts | 232° |
| 2026-04-21 14:35 | 59.72883 | 3.52171 | 27628 ft | 418 kts | 232° |
| 2026-04-21 14:35 | 59.71157 | 3.47495 | 27906 ft | 421 kts | 232° |
| 2026-04-21 14:35 | 59.69427 | 3.42814 | 28349 ft | 421 kts | 232° |
| 2026-04-21 14:35 | 59.67686 | 3.38113 | 28549 ft | 427 kts | 232° |
| 2026-04-21 14:36 | 59.65928 | 3.33376 | 28966 ft | 426 kts | 232° |
| 2026-04-21 14:36 | 59.64172 | 3.28653 | 29336 ft | 428 kts | 232° |
| 2026-04-21 14:36 | 59.62400 | 3.23895 | 29534 ft | 433 kts | 232° |
| 2026-04-21 14:36 | 59.60609 | 3.19095 | 29867 ft | 433 kts | 232° |
| 2026-04-21 14:37 | 59.58820 | 3.14314 | 30243 ft | 434 kts | 232° |
| 2026-04-21 14:37 | 59.57018 | 3.09509 | 30462 ft | 437 kts | 232° |
| 2026-04-21 14:37 | 59.55206 | 3.04687 | 30782 ft | 438 kts | 232° |
| 2026-04-21 14:37 | 59.53395 | 2.99879 | 31124 ft | 437 kts | 232° |
| 2026-04-21 14:38 | 59.51578 | 2.95062 | 31321 ft | 439 kts | 232° |
| 2026-04-21 14:38 | 59.49749 | 2.90225 | 31617 ft | 439 kts | 232° |
| 2026-04-21 14:38 | 59.47930 | 2.85424 | 32007 ft | 437 kts | 232° |
| 2026-04-21 14:38 | 59.46104 | 2.80612 | 32144 ft | 441 kts | 232° |
| 2026-04-21 14:39 | 59.44263 | 2.75769 | 32414 ft | 442 kts | 232° |
| 2026-04-21 14:39 | 59.42428 | 2.70950 | 32700 ft | 442 kts | 232° |
| 2026-04-21 14:39 | 59.40576 | 2.66106 | 32854 ft | 445 kts | 232° |
| 2026-04-21 14:39 | 59.38715 | 2.61247 | 33154 ft | 444 kts | 232° |
| 2026-04-21 14:40 | 59.36858 | 2.56404 | 33434 ft | 445 kts | 232° |
| 2026-04-21 14:40 | 59.33084 | 2.46593 | 33644 ft | 453 kts | 232° |
| 2026-04-21 14:40 | 59.31184 | 2.41669 | 33922 ft | 453 kts | 232° |
| 2026-04-21 14:41 | 59.29282 | 2.36753 | 34205 ft | 453 kts | 232° |
| 2026-04-21 14:41 | 59.27384 | 2.31852 | 34582 ft | 451 kts | 232° |
| 2026-04-21 14:41 | 59.25514 | 2.27038 | 34762 ft | 452 kts | 232° |
| 2026-04-21 14:41 | 59.23608 | 2.22138 | 34914 ft | 454 kts | 232° |
| 2026-04-21 14:42 | 59.21692 | 2.17226 | 35032 ft | 456 kts | 232° |
| 2026-04-21 14:42 | 59.19774 | 2.12318 | 35325 ft | 454 kts | 232° |
| 2026-04-21 14:42 | 59.17859 | 2.07428 | 35495 ft | 455 kts | 232° |
| 2026-04-21 14:42 | 59.15932 | 2.02517 | 35605 ft | 457 kts | 232° |
| 2026-04-21 14:43 | 59.14003 | 1.97609 | 35891 ft | 455 kts | 231° |
| 2026-04-21 14:43 | 59.12074 | 1.92714 | 36051 ft | 456 kts | 232° |
| 2026-04-21 14:43 | 59.10135 | 1.87802 | 36146 ft | 459 kts | 232° |
| 2026-04-21 14:43 | 59.08186 | 1.82875 | 36296 ft | 460 kts | 232° |
| 2026-04-21 14:44 | 59.06232 | 1.77948 | 36450 ft | 461 kts | 232° |
| 2026-04-21 14:44 | 59.02348 | 1.68185 | 36567 ft | 452 kts | 232° |
| 2026-04-21 14:45 | 58.98479 | 1.58498 | 36599 ft | 457 kts | 232° |
| 2026-04-21 14:45 | 58.94545 | 1.48689 | 36606 ft | 463 kts | 231° |
| 2026-04-21 14:46 | 58.90562 | 1.38800 | 36579 ft | 468 kts | 231° |
| 2026-04-21 14:46 | 58.86575 | 1.28940 | 36571 ft | 462 kts | 231° |
| 2026-04-21 14:47 | 58.82659 | 1.19297 | 36583 ft | 458 kts | 231° |
| 2026-04-21 14:47 | 58.78723 | 1.09644 | 36585 ft | 458 kts | 231° |
| 2026-04-21 14:48 | 58.74779 | 1.00015 | 36592 ft | 457 kts | 231° |
| 2026-04-21 14:48 | 58.70831 | 0.90411 | 36594 ft | 458 kts | 231° |
| 2026-04-21 14:49 | 58.66866 | 0.80806 | 36591 ft | 459 kts | 231° |
| 2026-04-21 14:49 | 58.62890 | 0.71214 | 36591 ft | 460 kts | 231° |
| 2026-04-21 14:50 | 58.59572 | 0.63238 | 36597 ft | 460 kts | 231° |
| 2026-04-21 14:50 | 58.55566 | 0.53647 | 36590 ft | 461 kts | 231° |
| 2026-04-21 14:51 | 58.51543 | 0.44053 | 36595 ft | 462 kts | 231° |
| 2026-04-21 14:51 | 58.47506 | 0.34463 | 36603 ft | 463 kts | 231° |
| 2026-04-21 14:52 | 58.43454 | 0.24877 | 36595 ft | 464 kts | 231° |
| 2026-04-21 14:52 | 58.39393 | 0.15310 | 36598 ft | 464 kts | 230° |
| 2026-04-21 14:53 | 58.35330 | 0.05776 | 36591 ft | 463 kts | 230° |
| 2026-04-21 14:53 | 58.31258 | -0.03739 | 36594 ft | 463 kts | 230° |
| 2026-04-21 14:54 | 58.27217 | -0.13146 | 36599 ft | 462 kts | 230° |
| 2026-04-21 14:54 | 58.23115 | -0.22654 | 36599 ft | 462 kts | 230° |
| 2026-04-21 14:55 | 58.19067 | -0.32002 | 36606 ft | 462 kts | 230° |
| 2026-04-21 14:55 | 58.14984 | -0.41393 | 36596 ft | 462 kts | 230° |
| 2026-04-21 14:56 | 58.10895 | -0.50759 | 36604 ft | 461 kts | 230° |
| 2026-04-21 14:56 | 58.06801 | -0.60100 | 36598 ft | 461 kts | 230° |
| 2026-04-21 14:57 | 58.02699 | -0.69421 | 36593 ft | 462 kts | 230° |
| 2026-04-21 14:57 | 57.98590 | -0.78725 | 36601 ft | 462 kts | 230° |
| 2026-04-21 14:58 | 57.94471 | -0.88012 | 36603 ft | 462 kts | 230° |
| 2026-04-21 14:58 | 57.90347 | -0.97275 | 36606 ft | 462 kts | 229° |
| 2026-04-21 14:59 | 57.86212 | -1.06525 | 36597 ft | 462 kts | 229° |
| 2026-04-21 14:59 | 57.82070 | -1.15755 | 36599 ft | 462 kts | 229° |
| 2026-04-21 15:00 | 57.77920 | -1.24967 | 36598 ft | 462 kts | 229° |
| 2026-04-21 15:00 | 57.73763 | -1.34157 | 36604 ft | 462 kts | 229° |
| 2026-04-21 15:01 | 57.69587 | -1.43354 | 36184 ft | 466 kts | 229° |
| 2026-04-21 15:01 | 57.67500 | -1.47938 | 35814 ft | 461 kts | 229° |
| 2026-04-21 15:01 | 57.65433 | -1.52469 | 35409 ft | 457 kts | 229° |
| 2026-04-21 15:01 | 57.63379 | -1.56962 | 35023 ft | 453 kts | 229° |
| 2026-04-21 15:02 | 57.61342 | -1.61410 | 34605 ft | 449 kts | 229° |
| 2026-04-21 15:02 | 57.59320 | -1.65817 | 34110 ft | 446 kts | 229° |
| 2026-04-21 15:02 | 57.57311 | -1.70189 | 33681 ft | 441 kts | 229° |
| 2026-04-21 15:02 | 57.55324 | -1.74504 | 33277 ft | 436 kts | 228° |
| 2026-04-21 15:03 | 57.53357 | -1.78768 | 32866 ft | 432 kts | 229° |
| 2026-04-21 15:03 | 57.51406 | -1.82991 | 32474 ft | 428 kts | 229° |
| 2026-04-21 15:03 | 57.49473 | -1.87164 | 32088 ft | 424 kts | 228° |
| 2026-04-21 15:03 | 57.47554 | -1.91299 | 31691 ft | 420 kts | 228° |
| 2026-04-21 15:04 | 57.45653 | -1.95390 | 31310 ft | 417 kts | 229° |
| 2026-04-21 15:04 | 57.43766 | -1.99446 | 30925 ft | 413 kts | 228° |
| 2026-04-21 15:04 | 57.41919 | -2.03407 | 30538 ft | 410 kts | 228° |
| 2026-04-21 15:04 | 57.40037 | -2.07438 | 30107 ft | 406 kts | 228° |
| 2026-04-21 15:05 | 57.38225 | -2.11316 | 29716 ft | 401 kts | 227° |
| 2026-04-21 15:05 | 57.34583 | -2.19085 | 28938 ft | 392 kts | 227° |
| 2026-04-21 15:05 | 57.32799 | -2.22877 | 28560 ft | 389 kts | 227° |
| 2026-04-21 15:06 | 57.30990 | -2.26555 | 28175 ft | 384 kts | 222° |
| 2026-04-21 15:06 | 57.28933 | -2.29599 | 27947 ft | 375 kts | 213° |
| 2026-04-21 15:06 | 57.26809 | -2.32349 | 27566 ft | 372 kts | 213° |
| 2026-04-21 15:06 | 57.24689 | -2.35057 | 27216 ft | 369 kts | 212° |
| 2026-04-21 15:07 | 57.22588 | -2.37745 | 26854 ft | 366 kts | 213° |
| 2026-04-21 15:07 | 57.20528 | -2.40392 | 26486 ft | 365 kts | 212° |
| 2026-04-21 15:07 | 57.18456 | -2.43068 | 26128 ft | 363 kts | 212° |
| 2026-04-21 15:07 | 57.16370 | -2.45766 | 25767 ft | 361 kts | 213° |
| 2026-04-21 15:08 | 57.14351 | -2.48380 | 25420 ft | 359 kts | 213° |
| 2026-04-21 15:08 | 57.12311 | -2.51020 | 25066 ft | 358 kts | 212° |
| 2026-04-21 15:08 | 57.10277 | -2.53649 | 24710 ft | 357 kts | 212° |
| 2026-04-21 15:08 | 57.08252 | -2.56264 | 24371 ft | 355 kts | 212° |
| 2026-04-21 15:09 | 57.06205 | -2.58904 | 23970 ft | 355 kts | 212° |
| 2026-04-21 15:09 | 57.04189 | -2.61501 | 23564 ft | 353 kts | 212° |
| 2026-04-21 15:09 | 57.02184 | -2.64081 | 23180 ft | 351 kts | 212° |
| 2026-04-21 15:09 | 57.00215 | -2.66611 | 22828 ft | 349 kts | 212° |
| 2026-04-21 15:10 | 56.98235 | -2.69151 | 22480 ft | 347 kts | 212° |
| 2026-04-21 15:10 | 56.96263 | -2.71676 | 22119 ft | 345 kts | 212° |
| 2026-04-21 15:10 | 56.94300 | -2.74176 | 21737 ft | 344 kts | 212° |
| 2026-04-21 15:10 | 56.92330 | -2.76664 | 21363 ft | 342 kts | 212° |
| 2026-04-21 15:11 | 56.90376 | -2.79126 | 21009 ft | 341 kts | 212° |
| 2026-04-21 15:11 | 56.88428 | -2.81585 | 20653 ft | 339 kts | 212° |
| 2026-04-21 15:11 | 56.86489 | -2.84038 | 20316 ft | 338 kts | 212° |
| 2026-04-21 15:11 | 56.84560 | -2.86479 | 19967 ft | 337 kts | 212° |
| 2026-04-21 15:12 | 56.82637 | -2.88911 | 19643 ft | 336 kts | 212° |
| 2026-04-21 15:12 | 56.80721 | -2.91330 | 19312 ft | 335 kts | 212° |
| 2026-04-21 15:12 | 56.78808 | -2.93743 | 18975 ft | 334 kts | 211° |
| 2026-04-21 15:12 | 56.76901 | -2.96142 | 18601 ft | 333 kts | 211° |
| 2026-04-21 15:13 | 56.75000 | -2.98536 | 18234 ft | 332 kts | 212° |
| 2026-04-21 15:13 | 56.73106 | -3.00927 | 17875 ft | 330 kts | 211° |
| 2026-04-21 15:13 | 56.71224 | -3.03299 | 17521 ft | 328 kts | 211° |
| 2026-04-21 15:13 | 56.69351 | -3.05657 | 17191 ft | 326 kts | 211° |
| 2026-04-21 15:14 | 56.67487 | -3.07995 | 16865 ft | 325 kts | 211° |
| 2026-04-21 15:14 | 56.65634 | -3.10308 | 16542 ft | 323 kts | 211° |
| 2026-04-21 15:14 | 56.63788 | -3.12611 | 16220 ft | 321 kts | 211° |
| 2026-04-21 15:14 | 56.61954 | -3.14896 | 15894 ft | 319 kts | 211° |
| 2026-04-21 15:15 | 56.60123 | -3.17175 | 15577 ft | 318 kts | 211° |
| 2026-04-21 15:15 | 56.58302 | -3.19440 | 15256 ft | 316 kts | 211° |
| 2026-04-21 15:15 | 56.56492 | -3.21689 | 14938 ft | 315 kts | 211° |
| 2026-04-21 15:15 | 56.54686 | -3.23930 | 14619 ft | 314 kts | 211° |
| 2026-04-21 15:16 | 56.52888 | -3.26160 | 14305 ft | 313 kts | 211° |
| 2026-04-21 15:16 | 56.51098 | -3.28378 | 13943 ft | 311 kts | 211° |
| 2026-04-21 15:16 | 56.49313 | -3.30588 | 13608 ft | 310 kts | 211° |
| 2026-04-21 15:16 | 56.47538 | -3.32781 | 13280 ft | 308 kts | 211° |
| 2026-04-21 15:17 | 56.45774 | -3.34957 | 12963 ft | 306 kts | 211° |
| 2026-04-21 15:17 | 56.44023 | -3.37119 | 12643 ft | 304 kts | 211° |
| 2026-04-21 15:17 | 56.42300 | -3.39319 | 12335 ft | 302 kts | 212° |
| 2026-04-21 15:17 | 56.40595 | -3.41536 | 12018 ft | 301 kts | 212° |
| 2026-04-21 15:18 | 56.38930 | -3.43707 | 11723 ft | 299 kts | 212° |
| 2026-04-21 15:18 | 56.37249 | -3.45896 | 11425 ft | 297 kts | 212° |
| 2026-04-21 15:18 | 56.35554 | -3.48097 | 11113 ft | 296 kts | 212° |
| 2026-04-21 15:18 | 56.33888 | -3.50254 | 10852 ft | 293 kts | 211° |
| 2026-04-21 15:19 | 56.32260 | -3.52361 | 10726 ft | 284 kts | 211° |
| 2026-04-21 15:19 | 56.30675 | -3.54407 | 10589 ft | 277 kts | 212° |
| 2026-04-21 15:19 | 56.29125 | -3.56405 | 10387 ft | 273 kts | 211° |
| 2026-04-21 15:19 | 56.27585 | -3.58387 | 10095 ft | 271 kts | 211° |
| 2026-04-21 15:20 | 56.26052 | -3.60359 | 9822 ft | 270 kts | 211° |
| 2026-04-21 15:20 | 56.24548 | -3.62292 | 9559 ft | 269 kts | 211° |
| 2026-04-21 15:20 | 56.23026 | -3.64243 | 9285 ft | 269 kts | 211° |
| 2026-04-21 15:20 | 56.21506 | -3.66192 | 8989 ft | 267 kts | 211° |
| 2026-04-21 15:21 | 56.19984 | -3.68148 | 8735 ft | 266 kts | 213° |
| 2026-04-21 15:21 | 56.18702 | -3.70572 | 8468 ft | 271 kts | 230° |
| 2026-04-21 15:21 | 56.17603 | -3.73311 | 8212 ft | 271 kts | 229° |
| 2026-04-21 15:21 | 56.16498 | -3.75986 | 7937 ft | 269 kts | 229° |
| 2026-04-21 15:22 | 56.15376 | -3.78657 | 7709 ft | 267 kts | 229° |
| 2026-04-21 15:22 | 56.14244 | -3.81227 | 7584 ft | 257 kts | 219° |
| 2026-04-21 15:22 | 56.12769 | -3.82724 | 7434 ft | 237 kts | 186° |
| 2026-04-21 15:22 | 56.11158 | -3.82987 | 7340 ft | 233 kts | 172° |
| 2026-04-21 15:23 | 56.09524 | -3.82709 | 7223 ft | 239 kts | 167° |
| 2026-04-21 15:23 | 56.07855 | -3.82318 | 7075 ft | 245 kts | 168° |
| 2026-04-21 15:23 | 56.06152 | -3.81914 | 6845 ft | 247 kts | 168° |
| 2026-04-21 15:23 | 56.04472 | -3.81531 | 6564 ft | 241 kts | 167° |
| 2026-04-21 15:24 | 56.02813 | -3.81161 | 6129 ft | 240 kts | 167° |
| 2026-04-21 15:24 | 56.01180 | -3.80804 | 5964 ft | 235 kts | 168° |
| 2026-04-21 15:24 | 55.99540 | -3.80447 | 5811 ft | 239 kts | 168° |
| 2026-04-21 15:24 | 55.97880 | -3.80089 | 5664 ft | 242 kts | 168° |
| 2026-04-21 15:25 | 55.96206 | -3.79732 | 5510 ft | 242 kts | 168° |
| 2026-04-21 15:25 | 55.94541 | -3.79380 | 5357 ft | 241 kts | 167° |
| 2026-04-21 15:25 | 55.92882 | -3.79031 | 5195 ft | 239 kts | 168° |
| 2026-04-21 15:25 | 55.91233 | -3.78684 | 5051 ft | 237 kts | 167° |
| 2026-04-21 15:26 | 55.89601 | -3.78342 | 4903 ft | 235 kts | 167° |
| 2026-04-21 15:26 | 55.87995 | -3.78006 | 4751 ft | 229 kts | 167° |
| 2026-04-21 15:26 | 55.86432 | -3.77680 | 4610 ft | 224 kts | 167° |
| 2026-04-21 15:26 | 55.84908 | -3.77364 | 4476 ft | 217 kts | 166° |
| 2026-04-21 15:27 | 55.83541 | -3.76557 | 4330 ft | 200 kts | 134° |
| 2026-04-21 15:27 | 55.82903 | -3.74607 | 4280 ft | 177 kts | 96° |
| 2026-04-21 15:27 | 55.82995 | -3.72516 | 4190 ft | 170 kts | 72° |
| 2026-04-21 15:27 | 55.83644 | -3.70498 | 4133 ft | 202 kts | 60° |
| 2026-04-21 15:28 | 55.84409 | -3.68346 | 4035 ft | 207 kts | 60° |
| 2026-04-21 15:28 | 55.85214 | -3.66166 | 3752 ft | 209 kts | 60° |
| 2026-04-21 15:28 | 55.85965 | -3.64045 | 3476 ft | 197 kts | 61° |
| 2026-04-21 15:28 | 55.86654 | -3.62019 | 3216 ft | 186 kts | 62° |
| 2026-04-21 15:29 | 55.87300 | -3.60095 | 2959 ft | 178 kts | 62° |
| 2026-04-21 15:29 | 55.87920 | -3.58250 | 2741 ft | 171 kts | 62° |
| 2026-04-21 15:29 | 55.88516 | -3.56479 | 2518 ft | 161 kts | 62° |
| 2026-04-21 15:29 | 55.89075 | -3.54820 | 2303 ft | 151 kts | 63° |
| 2026-04-21 15:30 | 55.89594 | -3.53270 | 2093 ft | 139 kts | 62° |
| 2026-04-21 15:30 | 55.90071 | -3.51854 | 1897 ft | 131 kts | 61° |
| 2026-04-21 15:30 | 55.90532 | -3.50482 | 1706 ft | 130 kts | 61° |
| 2026-04-21 15:30 | 55.90992 | -3.49112 | 1525 ft | 130 kts | 61° |
| 2026-04-21 15:31 | 55.91459 | -3.47737 | 1380 ft | 129 kts | 62° |
| 2026-04-21 15:31 | 55.91925 | -3.46346 | 1179 ft | 131 kts | 61° |
| 2026-04-21 15:31 | 55.92392 | -3.44963 | 974 ft | 131 kts | 60° |
| 2026-04-21 15:31 | 55.92856 | -3.43603 | 809 ft | 128 kts | 60° |
| 2026-04-21 15:32 | 55.93326 | -3.42237 | 624 ft | 132 kts | 62° |
| 2026-04-21 15:32 | 55.93797 | -3.40824 | 437 ft | 132 kts | 60° |
| 2026-04-21 15:32 | 55.94275 | -3.39435 | 243 ft | 129 kts | 58° |
| 2026-04-21 15:32 | 55.94716 | -3.38096 | 114 ft | 119 kts | 59° |
| 2026-04-21 15:33 | 55.95035 | -3.37150 | 110 ft | 59 kts | 59° |
| 2026-04-21 15:33 | 55.95163 | -3.36771 | 112 ft | 28 kts | 59° |
| 2026-04-21 15:33 | 55.95224 | -3.36587 | 111 ft | 25 kts | 58° |
| 2026-04-21 15:33 | 55.95177 | -3.36329 | 114 ft | 19 kts | 148° |
| 2026-04-21 15:34 | 55.95109 | -3.36358 | 115 ft | 17 kts | 233° |
| 2026-04-21 15:34 | 55.95031 | -3.36391 | 113 ft | 12 kts | 191° |
| 2026-04-21 15:34 | 55.94978 | -3.36501 | 115 ft | 12 kts | 234° |
| 2026-04-21 15:34 | 55.94948 | -3.36540 | 114 ft | 2 kts | 148° |
| 2026-04-21 15:35 | 55.94933 | -3.36521 | 114 ft | 4 kts | 145° |
| 2026-04-21 15:35 | 55.94909 | -3.36496 | 114 ft | 3 kts | 156° |
| 2026-04-21 15:35 | 55.94904 | -3.36492 | 114 ft | 0 kts | 154° |